sensor_id;sensor_type;location;lat;lon;timestamp;P1;durP1;ratioP1;P2;durP2;ratioP2
75152;SDS011;63734;45.218;36.708;2023-05-07T00:01:56;6.28;;;2.15;;
75152;SDS011;63734;45.218;36.708;2023-05-07T00:04:22;7.18;;;2.85;;
75152;SDS011;63734;45.218;36.708;2023-05-07T00:06:48;7.38;;;3.15;;
75152;SDS011;63734;45.218;36.708;2023-05-07T00:09:15;4.70;;;3.10;;
75152;SDS011;63734;45.218;36.708;2023-05-07T00:11:41;8.25;;;3.15;;
75152;SDS011;63734;45.218;36.708;2023-05-07T00:14:07;4.32;;;2.35;;
75152;SDS011;63734;45.218;36.708;2023-05-07T00:16:33;5.18;;;2.67;;
75152;SDS011;63734;45.218;36.708;2023-05-07T00:18:59;6.22;;;2.55;;
75152;SDS011;63734;45.218;36.708;2023-05-07T00:21:25;6.35;;;3.00;;
75152;SDS011;63734;45.218;36.708;2023-05-07T00:23:52;4.90;;;3.05;;
75152;SDS011;63734;45.218;36.708;2023-05-07T00:26:19;7.60;;;3.20;;
75152;SDS011;63734;45.218;36.708;2023-05-07T00:28:48;8.50;;;3.13;;
75152;SDS011;63734;45.218;36.708;2023-05-07T00:31:14;4.43;;;2.50;;
75152;SDS011;63734;45.218;36.708;2023-05-07T00:33:40;8.23;;;3.40;;
75152;SDS011;63734;45.218;36.708;2023-05-07T00:36:06;5.70;;;2.72;;
75152;SDS011;63734;45.218;36.708;2023-05-07T00:38:32;6.50;;;2.95;;
75152;SDS011;63734;45.218;36.708;2023-05-07T00:40:58;10.82;;;3.38;;
75152;SDS011;63734;45.218;36.708;2023-05-07T00:43:24;5.15;;;2.50;;
75152;SDS011;63734;45.218;36.708;2023-05-07T00:45:50;9.30;;;2.97;;
75152;SDS011;63734;45.218;36.708;2023-05-07T00:48:16;8.70;;;3.33;;
75152;SDS011;63734;45.218;36.708;2023-05-07T00:50:43;4.90;;;2.83;;
75152;SDS011;63734;45.218;36.708;2023-05-07T00:53:11;6.22;;;2.55;;
75152;SDS011;63734;45.218;36.708;2023-05-07T00:55:37;6.93;;;2.80;;
75152;SDS011;63734;45.218;36.708;2023-05-07T00:58:03;4.13;;;2.35;;
75152;SDS011;63734;45.218;36.708;2023-05-07T01:00:31;7.00;;;2.90;;
75152;SDS011;63734;45.218;36.708;2023-05-07T01:02:58;6.45;;;2.67;;
75152;SDS011;63734;45.218;36.708;2023-05-07T01:05:24;4.68;;;2.70;;
75152;SDS011;63734;45.218;36.708;2023-05-07T01:07:52;5.15;;;2.33;;
75152;SDS011;63734;45.218;36.708;2023-05-07T01:10:20;14.95;;;2.92;;
75152;SDS011;63734;45.218;36.708;2023-05-07T01:12:47;4.55;;;1.85;;
75152;SDS011;63734;45.218;36.708;2023-05-07T01:15:15;6.97;;;3.03;;
75152;SDS011;63734;45.218;36.708;2023-05-07T01:17:41;7.55;;;2.35;;
75152;SDS011;63734;45.218;36.708;2023-05-07T01:20:13;7.28;;;2.78;;
75152;SDS011;63734;45.218;36.708;2023-05-07T01:22:43;4.90;;;2.80;;
75152;SDS011;63734;45.218;36.708;2023-05-07T01:25:09;3.25;;;2.60;;
75152;SDS011;63734;45.218;36.708;2023-05-07T01:27:40;8.15;;;2.67;;
75152;SDS011;63734;45.218;36.708;2023-05-07T01:30:06;9.45;;;2.58;;
75152;SDS011;63734;45.218;36.708;2023-05-07T01:32:35;7.50;;;2.40;;
75152;SDS011;63734;45.218;36.708;2023-05-07T01:35:10;6.10;;;2.78;;
75152;SDS011;63734;45.218;36.708;2023-05-07T01:37:38;6.80;;;2.40;;
75152;SDS011;63734;45.218;36.708;2023-05-07T01:40:05;5.18;;;2.33;;
75152;SDS011;63734;45.218;36.708;2023-05-07T01:42:32;4.43;;;2.55;;
75152;SDS011;63734;45.218;36.708;2023-05-07T01:44:59;4.93;;;2.50;;
75152;SDS011;63734;45.218;36.708;2023-05-07T01:47:25;4.97;;;2.45;;
75152;SDS011;63734;45.218;36.708;2023-05-07T01:49:52;3.50;;;2.63;;
75152;SDS011;63734;45.218;36.708;2023-05-07T01:52:19;6.72;;;1.98;;
75152;SDS011;63734;45.218;36.708;2023-05-07T01:54:45;11.43;;;2.65;;
75152;SDS011;63734;45.218;36.708;2023-05-07T01:57:11;5.47;;;2.50;;
75152;SDS011;63734;45.218;36.708;2023-05-07T01:59:37;5.25;;;1.90;;
75152;SDS011;63734;45.218;36.708;2023-05-07T02:02:03;4.72;;;2.05;;
75152;SDS011;63734;45.218;36.708;2023-05-07T02:04:30;7.15;;;2.58;;
75152;SDS011;63734;45.218;36.708;2023-05-07T02:06:56;5.35;;;2.03;;
75152;SDS011;63734;45.218;36.708;2023-05-07T02:09:23;16.80;;;2.75;;
75152;SDS011;63734;45.218;36.708;2023-05-07T02:11:50;5.20;;;1.95;;
75152;SDS011;63734;45.218;36.708;2023-05-07T02:14:17;7.65;;;2.30;;
75152;SDS011;63734;45.218;36.708;2023-05-07T02:16:45;7.25;;;2.58;;
75152;SDS011;63734;45.218;36.708;2023-05-07T02:19:13;2.72;;;1.88;;
75152;SDS011;63734;45.218;36.708;2023-05-07T02:21:39;3.72;;;1.88;;
75152;SDS011;63734;45.218;36.708;2023-05-07T02:24:05;3.55;;;1.95;;
75152;SDS011;63734;45.218;36.708;2023-05-07T02:26:31;4.03;;;1.95;;
75152;SDS011;63734;45.218;36.708;2023-05-07T02:28:57;6.20;;;2.20;;
75152;SDS011;63734;45.218;36.708;2023-05-07T02:31:23;3.08;;;1.95;;
75152;SDS011;63734;45.218;36.708;2023-05-07T02:33:49;3.22;;;2.10;;
75152;SDS011;63734;45.218;36.708;2023-05-07T02:36:15;4.90;;;2.17;;
75152;SDS011;63734;45.218;36.708;2023-05-07T02:38:53;2.35;;;1.52;;
75152;SDS011;63734;45.218;36.708;2023-05-07T02:41:19;6.57;;;2.13;;
75152;SDS011;63734;45.218;36.708;2023-05-07T02:43:46;7.13;;;2.55;;
75152;SDS011;63734;45.218;36.708;2023-05-07T02:46:12;3.88;;;1.90;;
75152;SDS011;63734;45.218;36.708;2023-05-07T02:48:42;6.72;;;2.05;;
75152;SDS011;63734;45.218;36.708;2023-05-07T02:51:08;5.80;;;2.72;;
75152;SDS011;63734;45.218;36.708;2023-05-07T02:53:36;2.88;;;1.80;;
75152;SDS011;63734;45.218;36.708;2023-05-07T02:56:02;6.30;;;2.00;;
75152;SDS011;63734;45.218;36.708;2023-05-07T02:58:28;4.70;;;1.90;;
75152;SDS011;63734;45.218;36.708;2023-05-07T03:00:55;2.83;;;1.75;;
75152;SDS011;63734;45.218;36.708;2023-05-07T03:03:41;5.53;;;1.75;;
75152;SDS011;63734;45.218;36.708;2023-05-07T03:06:07;4.40;;;2.00;;
75152;SDS011;63734;45.218;36.708;2023-05-07T03:08:33;4.75;;;2.10;;
75152;SDS011;63734;45.218;36.708;2023-05-07T03:10:59;5.63;;;2.40;;
75152;SDS011;63734;45.218;36.708;2023-05-07T03:13:25;4.30;;;2.03;;
75152;SDS011;63734;45.218;36.708;2023-05-07T03:15:51;2.33;;;1.50;;
75152;SDS011;63734;45.218;36.708;2023-05-07T03:18:17;4.32;;;1.75;;
75152;SDS011;63734;45.218;36.708;2023-05-07T03:20:43;5.20;;;1.92;;
75152;SDS011;63734;45.218;36.708;2023-05-07T03:23:09;3.60;;;2.13;;
75152;SDS011;63734;45.218;36.708;2023-05-07T03:25:35;6.88;;;1.90;;
75152;SDS011;63734;45.218;36.708;2023-05-07T03:28:01;6.38;;;1.92;;
75152;SDS011;63734;45.218;36.708;2023-05-07T03:30:36;4.63;;;1.77;;
75152;SDS011;63734;45.218;36.708;2023-05-07T03:33:02;4.10;;;1.83;;
75152;SDS011;63734;45.218;36.708;2023-05-07T03:35:28;3.75;;;2.33;;
75152;SDS011;63734;45.218;36.708;2023-05-07T03:37:54;1.92;;;1.65;;
75152;SDS011;63734;45.218;36.708;2023-05-07T03:40:21;4.55;;;2.05;;
75152;SDS011;63734;45.218;36.708;2023-05-07T03:42:51;3.00;;;1.70;;
75152;SDS011;63734;45.218;36.708;2023-05-07T03:45:19;3.67;;;1.70;;
75152;SDS011;63734;45.218;36.708;2023-05-07T03:50:20;3.00;;;1.58;;
75152;SDS011;63734;45.218;36.708;2023-05-07T03:52:46;3.83;;;1.80;;
75152;SDS011;63734;45.218;36.708;2023-05-07T03:55:15;4.00;;;1.33;;
75152;SDS011;63734;45.218;36.708;2023-05-07T03:57:47;3.45;;;1.67;;
75152;SDS011;63734;45.218;36.708;2023-05-07T04:00:13;3.67;;;1.75;;
75152;SDS011;63734;45.218;36.708;2023-05-07T04:02:48;2.70;;;1.77;;
75152;SDS011;63734;45.218;36.708;2023-05-07T04:05:21;3.42;;;1.80;;
75152;SDS011;63734;45.218;36.708;2023-05-07T04:07:50;2.92;;;1.70;;
75152;SDS011;63734;45.218;36.708;2023-05-07T04:10:20;2.67;;;1.60;;
75152;SDS011;63734;45.218;36.708;2023-05-07T04:12:48;2.35;;;1.42;;
75152;SDS011;63734;45.218;36.708;2023-05-07T04:15:19;3.47;;;1.73;;
75152;SDS011;63734;45.218;36.708;2023-05-07T04:17:45;3.08;;;1.73;;
75152;SDS011;63734;45.218;36.708;2023-05-07T04:20:16;3.30;;;1.52;;
75152;SDS011;63734;45.218;36.708;2023-05-07T04:25:12;2.00;;;1.33;;
75152;SDS011;63734;45.218;36.708;2023-05-07T04:27:39;2.50;;;1.55;;
75152;SDS011;63734;45.218;36.708;2023-05-07T04:30:05;4.38;;;1.48;;
75152;SDS011;63734;45.218;36.708;2023-05-07T04:32:35;1.65;;;1.20;;
75152;SDS011;63734;45.218;36.708;2023-05-07T04:35:03;1.98;;;1.50;;
75152;SDS011;63734;45.218;36.708;2023-05-07T04:37:31;4.40;;;1.52;;
75152;SDS011;63734;45.218;36.708;2023-05-07T04:39:58;2.15;;;1.30;;
75152;SDS011;63734;45.218;36.708;2023-05-07T04:42:24;2.33;;;1.40;;
75152;SDS011;63734;45.218;36.708;2023-05-07T04:44:52;3.05;;;1.40;;
75152;SDS011;63734;45.218;36.708;2023-05-07T04:47:19;3.30;;;1.65;;
75152;SDS011;63734;45.218;36.708;2023-05-07T04:49:46;3.65;;;1.63;;
75152;SDS011;63734;45.218;36.708;2023-05-07T04:52:12;3.45;;;1.50;;
75152;SDS011;63734;45.218;36.708;2023-05-07T04:54:39;3.33;;;1.27;;
75152;SDS011;63734;45.218;36.708;2023-05-07T04:57:07;3.50;;;1.25;;
75152;SDS011;63734;45.218;36.708;2023-05-07T04:59:33;3.15;;;1.30;;
75152;SDS011;63734;45.218;36.708;2023-05-07T05:01:59;5.53;;;1.67;;
75152;SDS011;63734;45.218;36.708;2023-05-07T05:04:26;1.85;;;1.10;;
75152;SDS011;63734;45.218;36.708;2023-05-07T05:06:53;2.30;;;1.30;;
75152;SDS011;63734;45.218;36.708;2023-05-07T05:09:20;3.47;;;1.70;;
75152;SDS011;63734;45.218;36.708;2023-05-07T05:11:46;2.92;;;1.38;;
75152;SDS011;63734;45.218;36.708;2023-05-07T05:14:12;5.78;;;1.58;;
75152;SDS011;63734;45.218;36.708;2023-05-07T05:16:39;2.53;;;1.27;;
75152;SDS011;63734;45.218;36.708;2023-05-07T05:19:05;6.53;;;1.55;;
75152;SDS011;63734;45.218;36.708;2023-05-07T05:21:34;3.90;;;1.30;;
75152;SDS011;63734;45.218;36.708;2023-05-07T05:24:05;1.67;;;1.20;;
75152;SDS011;63734;45.218;36.708;2023-05-07T05:26:32;4.22;;;1.60;;
75152;SDS011;63734;45.218;36.708;2023-05-07T05:29:11;2.13;;;1.27;;
75152;SDS011;63734;45.218;36.708;2023-05-07T05:31:41;4.03;;;1.40;;
75152;SDS011;63734;45.218;36.708;2023-05-07T05:34:07;2.67;;;1.50;;
75152;SDS011;63734;45.218;36.708;2023-05-07T05:36:34;3.67;;;1.50;;
75152;SDS011;63734;45.218;36.708;2023-05-07T05:39:00;4.90;;;1.70;;
75152;SDS011;63734;45.218;36.708;2023-05-07T05:41:27;4.18;;;1.55;;
75152;SDS011;63734;45.218;36.708;2023-05-07T05:43:53;2.45;;;1.15;;
75152;SDS011;63734;45.218;36.708;2023-05-07T05:46:19;2.53;;;1.55;;
75152;SDS011;63734;45.218;36.708;2023-05-07T05:48:46;2.22;;;1.20;;
75152;SDS011;63734;45.218;36.708;2023-05-07T05:51:12;3.50;;;1.60;;
75152;SDS011;63734;45.218;36.708;2023-05-07T05:53:38;5.57;;;1.30;;
75152;SDS011;63734;45.218;36.708;2023-05-07T05:56:05;4.68;;;1.60;;
75152;SDS011;63734;45.218;36.708;2023-05-07T05:58:33;3.83;;;1.35;;
75152;SDS011;63734;45.218;36.708;2023-05-07T06:01:02;6.90;;;1.77;;
75152;SDS011;63734;45.218;36.708;2023-05-07T06:03:29;4.70;;;1.70;;
75152;SDS011;63734;45.218;36.708;2023-05-07T06:05:59;4.85;;;1.95;;
75152;SDS011;63734;45.218;36.708;2023-05-07T06:08:25;4.00;;;1.70;;
75152;SDS011;63734;45.218;36.708;2023-05-07T06:10:54;4.88;;;1.63;;
75152;SDS011;63734;45.218;36.708;2023-05-07T06:13:20;5.28;;;1.92;;
75152;SDS011;63734;45.218;36.708;2023-05-07T06:15:49;5.22;;;1.60;;
75152;SDS011;63734;45.218;36.708;2023-05-07T06:18:15;3.95;;;1.55;;
75152;SDS011;63734;45.218;36.708;2023-05-07T06:20:41;5.38;;;1.80;;
75152;SDS011;63734;45.218;36.708;2023-05-07T06:23:13;6.57;;;2.20;;
75152;SDS011;63734;45.218;36.708;2023-05-07T06:25:40;3.33;;;1.55;;
75152;SDS011;63734;45.218;36.708;2023-05-07T06:28:07;5.43;;;1.67;;
75152;SDS011;63734;45.218;36.708;2023-05-07T06:30:38;5.43;;;1.88;;
75152;SDS011;63734;45.218;36.708;2023-05-07T06:33:05;6.18;;;2.00;;
75152;SDS011;63734;45.218;36.708;2023-05-07T06:35:31;5.80;;;2.08;;
75152;SDS011;63734;45.218;36.708;2023-05-07T06:37:57;5.20;;;2.00;;
75152;SDS011;63734;45.218;36.708;2023-05-07T06:40:26;5.40;;;2.03;;
75152;SDS011;63734;45.218;36.708;2023-05-07T06:42:52;3.60;;;2.03;;
75152;SDS011;63734;45.218;36.708;2023-05-07T06:45:28;2.67;;;1.52;;
75152;SDS011;63734;45.218;36.708;2023-05-07T06:47:56;2.28;;;1.75;;
75152;SDS011;63734;45.218;36.708;2023-05-07T06:50:23;5.10;;;1.80;;
75152;SDS011;63734;45.218;36.708;2023-05-07T06:52:53;5.57;;;1.90;;
75152;SDS011;63734;45.218;36.708;2023-05-07T06:55:20;6.57;;;2.22;;
75152;SDS011;63734;45.218;36.708;2023-05-07T06:57:46;4.70;;;1.83;;
75152;SDS011;63734;45.218;36.708;2023-05-07T07:00:13;6.00;;;1.85;;
75152;SDS011;63734;45.218;36.708;2023-05-07T07:02:46;6.07;;;1.52;;
75152;SDS011;63734;45.218;36.708;2023-05-07T07:05:15;5.03;;;1.63;;
75152;SDS011;63734;45.218;36.708;2023-05-07T07:07:42;4.18;;;1.73;;
75152;SDS011;63734;45.218;36.708;2023-05-07T07:10:09;4.75;;;1.80;;
75152;SDS011;63734;45.218;36.708;2023-05-07T07:12:35;8.68;;;1.95;;
75152;SDS011;63734;45.218;36.708;2023-05-07T07:15:02;5.50;;;1.60;;
75152;SDS011;63734;45.218;36.708;2023-05-07T07:17:28;3.90;;;1.70;;
75152;SDS011;63734;45.218;36.708;2023-05-07T07:19:54;2.15;;;1.13;;
75152;SDS011;63734;45.218;36.708;2023-05-07T07:22:20;3.42;;;1.80;;
75152;SDS011;63734;45.218;36.708;2023-05-07T07:24:46;4.90;;;1.90;;
75152;SDS011;63734;45.218;36.708;2023-05-07T07:27:15;1.10;;;0.85;;
75152;SDS011;63734;45.218;36.708;2023-05-07T07:29:41;4.85;;;1.35;;
75152;SDS011;63734;45.218;36.708;2023-05-07T07:32:07;4.32;;;1.50;;
75152;SDS011;63734;45.218;36.708;2023-05-07T07:34:33;5.15;;;1.73;;
75152;SDS011;63734;45.218;36.708;2023-05-07T07:37:01;6.90;;;1.83;;
75152;SDS011;63734;45.218;36.708;2023-05-07T07:39:31;3.03;;;1.70;;
75152;SDS011;63734;45.218;36.708;2023-05-07T07:41:59;5.22;;;1.95;;
75152;SDS011;63734;45.218;36.708;2023-05-07T07:44:28;2.72;;;1.45;;
75152;SDS011;63734;45.218;36.708;2023-05-07T07:46:58;2.78;;;1.45;;
75152;SDS011;63734;45.218;36.708;2023-05-07T07:49:26;4.22;;;1.23;;
75152;SDS011;63734;45.218;36.708;2023-05-07T07:51:53;4.10;;;1.70;;
75152;SDS011;63734;45.218;36.708;2023-05-07T07:54:19;2.97;;;1.70;;
75152;SDS011;63734;45.218;36.708;2023-05-07T07:56:45;6.05;;;1.80;;
75152;SDS011;63734;45.218;36.708;2023-05-07T07:59:12;4.50;;;1.90;;
75152;SDS011;63734;45.218;36.708;2023-05-07T08:01:43;2.08;;;1.48;;
75152;SDS011;63734;45.218;36.708;2023-05-07T08:04:09;3.42;;;1.60;;
75152;SDS011;63734;45.218;36.708;2023-05-07T08:06:38;6.07;;;1.80;;
75152;SDS011;63734;45.218;36.708;2023-05-07T08:09:07;3.05;;;1.65;;
75152;SDS011;63734;45.218;36.708;2023-05-07T08:11:33;3.47;;;1.58;;
75152;SDS011;63734;45.218;36.708;2023-05-07T08:14:02;4.45;;;1.63;;
75152;SDS011;63734;45.218;36.708;2023-05-07T08:16:28;4.95;;;1.90;;
75152;SDS011;63734;45.218;36.708;2023-05-07T08:18:54;3.15;;;1.75;;
75152;SDS011;63734;45.218;36.708;2023-05-07T08:21:21;5.63;;;2.10;;
75152;SDS011;63734;45.218;36.708;2023-05-07T08:23:48;4.15;;;1.73;;
75152;SDS011;63734;45.218;36.708;2023-05-07T08:26:14;6.80;;;2.42;;
75152;SDS011;63734;45.218;36.708;2023-05-07T08:28:41;8.00;;;2.05;;
75152;SDS011;63734;45.218;36.708;2023-05-07T08:31:08;3.03;;;1.80;;
75152;SDS011;63734;45.218;36.708;2023-05-07T08:33:37;4.68;;;2.10;;
75152;SDS011;63734;45.218;36.708;2023-05-07T08:36:04;10.13;;;2.20;;
75152;SDS011;63734;45.218;36.708;2023-05-07T08:38:31;5.55;;;1.98;;
75152;SDS011;63734;45.218;36.708;2023-05-07T08:40:57;5.05;;;2.05;;
75152;SDS011;63734;45.218;36.708;2023-05-07T08:43:26;8.98;;;2.50;;
75152;SDS011;63734;45.218;36.708;2023-05-07T08:45:54;5.55;;;1.52;;
75152;SDS011;63734;45.218;36.708;2023-05-07T08:48:27;4.65;;;2.08;;
75152;SDS011;63734;45.218;36.708;2023-05-07T08:51:13;4.10;;;1.60;;
75152;SDS011;63734;45.218;36.708;2023-05-07T08:53:41;6.53;;;2.50;;
75152;SDS011;63734;45.218;36.708;2023-05-07T08:56:11;5.68;;;2.03;;
75152;SDS011;63734;45.218;36.708;2023-05-07T08:58:37;4.15;;;2.28;;
75152;SDS011;63734;45.218;36.708;2023-05-07T09:01:07;4.65;;;2.17;;
75152;SDS011;63734;45.218;36.708;2023-05-07T09:03:37;7.28;;;2.60;;
75152;SDS011;63734;45.218;36.708;2023-05-07T09:06:04;5.03;;;2.00;;
75152;SDS011;63734;45.218;36.708;2023-05-07T09:08:32;7.18;;;2.28;;
75152;SDS011;63734;45.218;36.708;2023-05-07T09:11:01;5.32;;;2.00;;
75152;SDS011;63734;45.218;36.708;2023-05-07T09:13:28;5.53;;;1.75;;
75152;SDS011;63734;45.218;36.708;2023-05-07T09:15:55;4.13;;;1.83;;
75152;SDS011;63734;45.218;36.708;2023-05-07T09:18:23;3.40;;;1.90;;
75152;SDS011;63734;45.218;36.708;2023-05-07T09:20:51;4.03;;;1.63;;
75152;SDS011;63734;45.218;36.708;2023-05-07T09:23:19;4.57;;;2.50;;
75152;SDS011;63734;45.218;36.708;2023-05-07T09:25:46;5.82;;;2.08;;
75152;SDS011;63734;45.218;36.708;2023-05-07T09:28:19;6.75;;;2.05;;
75152;SDS011;63734;45.218;36.708;2023-05-07T09:30:45;3.38;;;2.20;;
75152;SDS011;63734;45.218;36.708;2023-05-07T09:33:13;5.47;;;2.42;;
75152;SDS011;63734;45.218;36.708;2023-05-07T09:35:44;4.38;;;2.20;;
75152;SDS011;63734;45.218;36.708;2023-05-07T09:38:14;5.38;;;2.58;;
75152;SDS011;63734;45.218;36.708;2023-05-07T09:40:47;3.88;;;2.40;;
75152;SDS011;63734;45.218;36.708;2023-05-07T09:43:14;3.72;;;2.08;;
75152;SDS011;63734;45.218;36.708;2023-05-07T09:45:46;6.97;;;2.83;;
75152;SDS011;63734;45.218;36.708;2023-05-07T09:48:18;6.45;;;2.58;;
75152;SDS011;63734;45.218;36.708;2023-05-07T09:50:48;2.30;;;1.77;;
75152;SDS011;63734;45.218;36.708;2023-05-07T09:53:20;4.00;;;2.22;;
75152;SDS011;63734;45.218;36.708;2023-05-07T09:55:48;4.53;;;2.17;;
75152;SDS011;63734;45.218;36.708;2023-05-07T09:58:14;5.88;;;2.20;;
75152;SDS011;63734;45.218;36.708;2023-05-07T10:00:42;4.20;;;2.08;;
75152;SDS011;63734;45.218;36.708;2023-05-07T10:03:12;5.20;;;2.33;;
75152;SDS011;63734;45.218;36.708;2023-05-07T10:05:48;5.82;;;2.42;;
75152;SDS011;63734;45.218;36.708;2023-05-07T10:08:16;9.38;;;2.97;;
75152;SDS011;63734;45.218;36.708;2023-05-07T10:10:47;3.45;;;2.17;;
75152;SDS011;63734;45.218;36.708;2023-05-07T10:13:18;4.55;;;2.42;;
75152;SDS011;63734;45.218;36.708;2023-05-07T10:15:48;5.10;;;2.45;;
75152;SDS011;63734;45.218;36.708;2023-05-07T10:18:16;5.53;;;2.00;;
75152;SDS011;63734;45.218;36.708;2023-05-07T10:20:48;4.63;;;2.10;;
75152;SDS011;63734;45.218;36.708;2023-05-07T10:23:18;4.25;;;2.20;;
75152;SDS011;63734;45.218;36.708;2023-05-07T10:25:49;2.75;;;2.10;;
75152;SDS011;63734;45.218;36.708;2023-05-07T10:28:20;4.07;;;2.15;;
75152;SDS011;63734;45.218;36.708;2023-05-07T10:33:44;5.05;;;2.35;;
75152;SDS011;63734;45.218;36.708;2023-05-07T10:36:14;5.55;;;2.28;;
75152;SDS011;63734;45.218;36.708;2023-05-07T10:38:42;5.93;;;2.58;;
75152;SDS011;63734;45.218;36.708;2023-05-07T10:41:10;3.78;;;2.20;;
75152;SDS011;63734;45.218;36.708;2023-05-07T10:43:41;4.50;;;2.47;;
75152;SDS011;63734;45.218;36.708;2023-05-07T10:46:14;4.72;;;2.30;;
75152;SDS011;63734;45.218;36.708;2023-05-07T10:49:13;7.10;;;2.55;;
75152;SDS011;63734;45.218;36.708;2023-05-07T10:52:04;2.70;;;1.98;;
75152;SDS011;63734;45.218;36.708;2023-05-07T10:58:32;3.47;;;2.13;;
75152;SDS011;63734;45.218;36.708;2023-05-07T11:01:14;8.13;;;3.30;;
75152;SDS011;63734;45.218;36.708;2023-05-07T11:04:12;5.13;;;2.38;;
75152;SDS011;63734;45.218;36.708;2023-05-07T11:12:52;5.03;;;1.98;;
75152;SDS011;63734;45.218;36.708;2023-05-07T11:15:37;3.95;;;1.95;;
75152;SDS011;63734;45.218;36.708;2023-05-07T11:18:46;6.78;;;1.95;;
75152;SDS011;63734;45.218;36.708;2023-05-07T11:21:35;3.25;;;1.90;;
75152;SDS011;63734;45.218;36.708;2023-05-07T11:24:25;3.88;;;2.08;;
75152;SDS011;63734;45.218;36.708;2023-05-07T11:26:56;7.57;;;2.33;;
75152;SDS011;63734;45.218;36.708;2023-05-07T11:29:25;4.20;;;1.80;;
75152;SDS011;63734;45.218;36.708;2023-05-07T11:32:02;9.68;;;2.35;;
75152;SDS011;63734;45.218;36.708;2023-05-07T11:34:34;3.97;;;2.33;;
75152;SDS011;63734;45.218;36.708;2023-05-07T11:37:01;6.00;;;2.20;;
75152;SDS011;63734;45.218;36.708;2023-05-07T11:39:40;3.97;;;2.20;;
75152;SDS011;63734;45.218;36.708;2023-05-07T11:42:25;5.57;;;2.40;;
75152;SDS011;63734;45.218;36.708;2023-05-07T11:44:53;4.43;;;2.05;;
75152;SDS011;63734;45.218;36.708;2023-05-07T11:47:19;5.70;;;2.40;;
75152;SDS011;63734;45.218;36.708;2023-05-07T11:49:49;4.30;;;2.33;;
75152;SDS011;63734;45.218;36.708;2023-05-07T11:52:17;4.50;;;2.40;;
75152;SDS011;63734;45.218;36.708;2023-05-07T11:54:54;3.53;;;2.00;;
75152;SDS011;63734;45.218;36.708;2023-05-07T11:57:24;4.15;;;2.40;;
75152;SDS011;63734;45.218;36.708;2023-05-07T11:59:54;4.30;;;2.05;;
75152;SDS011;63734;45.218;36.708;2023-05-07T12:02:21;4.78;;;2.35;;
75152;SDS011;63734;45.218;36.708;2023-05-07T12:04:47;7.50;;;2.72;;
75152;SDS011;63734;45.218;36.708;2023-05-07T12:07:13;5.40;;;2.45;;
75152;SDS011;63734;45.218;36.708;2023-05-07T12:09:43;6.20;;;2.80;;
75152;SDS011;63734;45.218;36.708;2023-05-07T12:12:10;4.75;;;2.63;;
75152;SDS011;63734;45.218;36.708;2023-05-07T12:14:39;6.07;;;2.70;;
75152;SDS011;63734;45.218;36.708;2023-05-07T12:17:10;5.88;;;2.75;;
75152;SDS011;63734;45.218;36.708;2023-05-07T12:19:37;8.10;;;2.50;;
75152;SDS011;63734;45.218;36.708;2023-05-07T12:22:05;6.05;;;2.90;;
75152;SDS011;63734;45.218;36.708;2023-05-07T12:27:24;4.72;;;2.47;;
75152;SDS011;63734;45.218;36.708;2023-05-07T12:29:51;4.75;;;2.58;;
75152;SDS011;63734;45.218;36.708;2023-05-07T12:32:18;5.63;;;2.45;;
75152;SDS011;63734;45.218;36.708;2023-05-07T12:34:45;4.18;;;2.78;;
75152;SDS011;63734;45.218;36.708;2023-05-07T12:37:11;5.43;;;2.92;;
75152;SDS011;63734;45.218;36.708;2023-05-07T12:39:38;6.53;;;2.67;;
75152;SDS011;63734;45.218;36.708;2023-05-07T12:42:09;4.85;;;2.72;;
75152;SDS011;63734;45.218;36.708;2023-05-07T12:44:41;4.97;;;2.50;;
75152;SDS011;63734;45.218;36.708;2023-05-07T12:47:11;4.35;;;2.20;;
75152;SDS011;63734;45.218;36.708;2023-05-07T12:49:38;3.58;;;2.47;;
75152;SDS011;63734;45.218;36.708;2023-05-07T12:52:05;4.53;;;2.83;;
75152;SDS011;63734;45.218;36.708;2023-05-07T12:54:32;8.68;;;2.63;;
75152;SDS011;63734;45.218;36.708;2023-05-07T12:57:06;5.40;;;2.75;;
75152;SDS011;63734;45.218;36.708;2023-05-07T12:59:39;6.10;;;3.38;;
75152;SDS011;63734;45.218;36.708;2023-05-07T13:02:06;4.28;;;2.35;;
75152;SDS011;63734;45.218;36.708;2023-05-07T13:04:35;4.85;;;2.75;;
75152;SDS011;63734;45.218;36.708;2023-05-07T13:07:01;5.38;;;2.83;;
75152;SDS011;63734;45.218;36.708;2023-05-07T13:09:27;9.85;;;4.57;;
75152;SDS011;63734;45.218;36.708;2023-05-07T13:11:57;5.80;;;3.47;;
75152;SDS011;63734;45.218;36.708;2023-05-07T13:14:26;4.63;;;2.65;;
75152;SDS011;63734;45.218;36.708;2023-05-07T13:16:52;3.20;;;2.28;;
75152;SDS011;63734;45.218;36.708;2023-05-07T13:19:18;6.40;;;2.70;;
75152;SDS011;63734;45.218;36.708;2023-05-07T13:21:44;5.50;;;2.80;;
75152;SDS011;63734;45.218;36.708;2023-05-07T13:24:10;5.53;;;3.25;;
75152;SDS011;63734;45.218;36.708;2023-05-07T13:26:36;6.40;;;3.53;;
75152;SDS011;63734;45.218;36.708;2023-05-07T13:29:02;5.88;;;3.38;;
75152;SDS011;63734;45.218;36.708;2023-05-07T13:31:28;6.07;;;3.42;;
75152;SDS011;63734;45.218;36.708;2023-05-07T13:33:55;6.60;;;3.03;;
75152;SDS011;63734;45.218;36.708;2023-05-07T13:36:21;7.63;;;2.78;;
75152;SDS011;63734;45.218;36.708;2023-05-07T13:38:47;6.45;;;3.35;;
75152;SDS011;63734;45.218;36.708;2023-05-07T13:41:13;6.82;;;2.80;;
75152;SDS011;63734;45.218;36.708;2023-05-07T13:43:40;7.13;;;3.20;;
75152;SDS011;63734;45.218;36.708;2023-05-07T13:46:05;5.15;;;3.97;;
75152;SDS011;63734;45.218;36.708;2023-05-07T13:48:31;6.00;;;3.78;;
75152;SDS011;63734;45.218;36.708;2023-05-07T13:50:57;4.93;;;2.65;;
75152;SDS011;63734;45.218;36.708;2023-05-07T13:53:23;4.68;;;2.92;;
75152;SDS011;63734;45.218;36.708;2023-05-07T13:55:49;4.55;;;2.90;;
75152;SDS011;63734;45.218;36.708;2023-05-07T13:58:15;5.00;;;3.15;;
75152;SDS011;63734;45.218;36.708;2023-05-07T14:00:41;6.80;;;3.05;;
75152;SDS011;63734;45.218;36.708;2023-05-07T14:03:07;5.82;;;2.58;;
75152;SDS011;63734;45.218;36.708;2023-05-07T14:05:33;6.68;;;2.95;;
75152;SDS011;63734;45.218;36.708;2023-05-07T14:07:58;6.05;;;3.05;;
75152;SDS011;63734;45.218;36.708;2023-05-07T14:10:25;5.07;;;3.25;;
75152;SDS011;63734;45.218;36.708;2023-05-07T14:12:51;5.28;;;3.10;;
75152;SDS011;63734;45.218;36.708;2023-05-07T14:15:17;6.63;;;4.00;;
75152;SDS011;63734;45.218;36.708;2023-05-07T14:17:43;6.53;;;3.03;;
75152;SDS011;63734;45.218;36.708;2023-05-07T14:20:10;8.02;;;3.80;;
75152;SDS011;63734;45.218;36.708;2023-05-07T14:22:37;5.03;;;3.40;;
75152;SDS011;63734;45.218;36.708;2023-05-07T14:25:03;7.22;;;3.08;;
75152;SDS011;63734;45.218;36.708;2023-05-07T14:27:30;6.13;;;3.25;;
75152;SDS011;63734;45.218;36.708;2023-05-07T14:29:55;5.07;;;2.92;;
75152;SDS011;63734;45.218;36.708;2023-05-07T14:32:21;4.20;;;3.28;;
75152;SDS011;63734;45.218;36.708;2023-05-07T14:34:47;6.13;;;3.90;;
75152;SDS011;63734;45.218;36.708;2023-05-07T14:37:14;6.30;;;3.20;;
75152;SDS011;63734;45.218;36.708;2023-05-07T14:39:40;10.63;;;3.60;;
75152;SDS011;63734;45.218;36.708;2023-05-07T14:42:06;5.10;;;3.42;;
75152;SDS011;63734;45.218;36.708;2023-05-07T14:44:34;7.70;;;3.58;;
75152;SDS011;63734;45.218;36.708;2023-05-07T14:47:00;5.43;;;2.85;;
75152;SDS011;63734;45.218;36.708;2023-05-07T14:49:26;4.80;;;3.13;;
75152;SDS011;63734;45.218;36.708;2023-05-07T14:51:53;7.82;;;4.22;;
75152;SDS011;63734;45.218;36.708;2023-05-07T14:54:19;6.35;;;3.65;;
75152;SDS011;63734;45.218;36.708;2023-05-07T14:56:45;7.63;;;3.38;;
75152;SDS011;63734;45.218;36.708;2023-05-07T14:59:11;5.82;;;3.30;;
75152;SDS011;63734;45.218;36.708;2023-05-07T15:01:37;9.20;;;4.13;;